createdAt,value
2019-03-26T00:00:06.702Z,102320.24
2019-03-26T00:03:14.751Z,102319.80
2019-03-26T00:06:24.222Z,102324.52
2019-03-26T00:09:33.990Z,102323.66
2019-03-26T00:12:43.384Z,102330.10
2019-03-26T00:15:52.887Z,102328.39
2019-03-26T00:19:02.433Z,102331.41
2019-03-26T00:22:22.023Z,102330.52
2019-03-26T00:25:31.526Z,102330.11
2019-03-26T00:28:41.272Z,102327.09
2019-03-26T00:31:50.773Z,102321.48
2019-03-26T00:35:00.408Z,102330.52
2019-03-26T00:38:09.948Z,102330.94
2019-03-26T00:41:19.387Z,102335.64
2019-03-26T00:44:28.981Z,102326.62
2019-03-26T00:47:39.574Z,102334.36
2019-03-26T00:50:49.919Z,102332.66
2019-03-26T00:53:59.265Z,102332.23
2019-03-26T00:57:19.122Z,102326.62
2019-03-26T01:00:42.474Z,102323.19
2019-03-26T01:03:54.859Z,102327.05
2019-03-26T01:07:02.942Z,102330.05
2019-03-26T01:10:23.326Z,102327.94
2019-03-26T01:13:32.879Z,102336.52
2019-03-26T01:16:42.473Z,102333.51
2019-03-26T01:19:51.917Z,102338.25
2019-03-26T01:23:01.397Z,102336.10
2019-03-26T01:26:10.840Z,102328.34
2019-03-26T01:29:20.256Z,102329.20
2019-03-26T01:32:40.131Z,102333.08
2019-03-26T01:35:49.520Z,102336.09
2019-03-26T01:38:58.830Z,102331.81
2019-03-26T01:42:18.569Z,102334.34
2019-03-26T01:45:28.125Z,102335.24
2019-03-26T01:48:37.570Z,102335.66
2019-03-26T01:51:47.068Z,102330.48
2019-03-26T01:54:56.469Z,102331.34
2019-03-26T01:58:16.497Z,102325.73
2019-03-26T02:01:26.163Z,102324.93
2019-03-26T02:04:35.607Z,102320.61
2019-03-26T02:07:45.153Z,102313.72
2019-03-26T02:10:54.585Z,102318.02
2019-03-26T02:14:14.165Z,102318.89
2019-03-26T02:17:23.639Z,102314.18
2019-03-26T02:20:33.799Z,102314.19
2019-03-26T02:23:43.181Z,102319.31
2019-03-26T02:27:03.326Z,102309.42
2019-03-26T02:30:12.874Z,102310.72
2019-03-26T02:33:22.323Z,102303.82
2019-03-26T02:36:30.251Z,102312.01
2019-03-26T02:39:39.894Z,102293.50
2019-03-26T02:42:49.359Z,102302.55
2019-03-26T02:45:58.803Z,102304.72
2019-03-26T02:49:18.555Z,102312.44
2019-03-26T02:52:28.014Z,102312.43
2019-03-26T02:55:37.530Z,102306.86
2019-03-26T02:58:47.022Z,102307.71
2019-03-26T03:01:56.357Z,102303.36
2019-03-26T03:05:05.792Z,102300.78
2019-03-26T03:08:15.136Z,102309.38
2019-03-26T03:11:24.555Z,102307.25
2019-03-26T03:14:44.194Z,102308.53
2019-03-26T03:17:53.651Z,102305.11
2019-03-26T03:21:04.018Z,102299.48
2019-03-26T03:24:13.504Z,102291.31
2019-03-26T03:27:33.233Z,102289.56
2019-03-26T03:30:42.724Z,102290.45
2019-03-26T03:33:52.236Z,102299.91
2019-03-26T03:37:01.732Z,102303.38
2019-03-26T03:40:11.618Z,102286.19
2019-03-26T03:43:20.970Z,102283.20
2019-03-26T03:46:30.709Z,102282.77
2019-03-26T03:49:40.526Z,102277.59
2019-03-26T03:52:50.660Z,102280.58
2019-03-26T03:56:02.588Z,102275.88
2019-03-26T03:59:13.587Z,102280.61
2019-03-26T04:02:33.289Z,102274.98
2019-03-26T04:05:42.637Z,102283.20
2019-03-26T04:08:52.075Z,102276.28
2019-03-26T04:12:11.935Z,102279.23
2019-03-26T04:15:21.540Z,102270.64
2019-03-26T04:18:30.972Z,102273.62
2019-03-26T04:21:40.447Z,102279.22
2019-03-26T04:24:50.077Z,102274.03
2019-03-26T04:28:09.619Z,102267.58
2019-03-26T04:31:19.063Z,102276.64
2019-03-26T04:34:28.547Z,102274.03
2019-03-26T04:37:48.185Z,102269.30
2019-03-26T04:40:57.794Z,102274.91
2019-03-26T04:44:07.080Z,102252.47
2019-03-26T04:47:28.215Z,102255.48
2019-03-26T04:50:37.609Z,102261.97
2019-03-26T04:53:47.201Z,102267.95
2019-03-26T04:57:06.959Z,102260.22
2019-03-26T05:00:17.981Z,102256.45
2019-03-26T05:03:27.337Z,102256.39
2019-03-26T05:06:47.275Z,102264.56
2019-03-26T05:09:56.681Z,102264.12
2019-03-26T05:13:06.092Z,102261.48
2019-03-26T05:16:15.700Z,102264.48
2019-03-26T05:19:25.191Z,102261.05
2019-03-26T05:22:44.808Z,102260.58
2019-03-26T05:25:54.193Z,102259.31
2019-03-26T05:29:03.600Z,102246.39
2019-03-26T05:32:23.571Z,102244.70
2019-03-26T05:35:33.985Z,102249.45
2019-03-26T05:38:43.483Z,102255.52
2019-03-26T05:41:57.409Z,102257.19
2019-03-26T05:45:17.224Z,102257.17
2019-03-26T05:48:26.674Z,102259.42
2019-03-26T05:51:36.097Z,102257.23
2019-03-26T05:54:55.697Z,102254.66
2019-03-26T05:58:04.992Z,102260.73
2019-03-26T06:01:14.412Z,102262.00
2019-03-26T06:04:23.798Z,102271.48
2019-03-26T06:07:33.178Z,102265.43
2019-03-26T06:10:42.902Z,102276.16
2019-03-26T06:13:52.223Z,102262.78
2019-03-26T06:17:01.557Z,102261.53
2019-03-26T06:20:22.985Z,102247.29
2019-03-26T06:23:34.648Z,102251.16
2019-03-26T06:26:54.492Z,102251.08
2019-03-26T06:30:03.793Z,102258.78
2019-03-26T06:33:13.111Z,102257.48
2019-03-26T06:36:24.214Z,102250.16
2019-03-26T06:39:33.531Z,102253.96
2019-03-26T06:42:42.993Z,102249.50
2019-03-26T06:46:02.822Z,102248.47
2019-03-26T06:49:14.105Z,102242.38
2019-03-26T06:52:24.443Z,102240.47
2019-03-26T06:55:34.156Z,102246.79
2019-03-26T06:58:44.777Z,102243.31
2019-03-26T07:01:54.165Z,102250.22
2019-03-26T07:05:03.587Z,102244.60
2019-03-26T07:08:12.864Z,102236.88
2019-03-26T07:11:22.380Z,102238.62
2019-03-26T07:14:42.191Z,102251.52
2019-03-26T07:17:52.551Z,102256.17
2019-03-26T07:21:02.116Z,102261.39
2019-03-26T07:24:11.822Z,102261.71
2019-03-26T07:27:21.115Z,102266.77
2019-03-26T07:30:49.393Z,102267.00
2019-03-26T07:33:58.820Z,102271.29
2019-03-26T07:37:08.352Z,102270.48
2019-03-26T07:40:17.745Z,102267.13
2019-03-26T07:43:37.461Z,102263.47
2019-03-26T07:46:46.934Z,102254.31
2019-03-26T07:49:56.329Z,102261.73
2019-03-26T07:53:16.145Z,102259.94
2019-03-26T07:56:25.562Z,102260.39
2019-03-26T07:59:34.845Z,102255.95
2019-03-26T08:02:54.533Z,102254.34
2019-03-26T08:06:04.154Z,102260.77
2019-03-26T08:09:13.607Z,102266.92
2019-03-26T08:12:33.202Z,102264.61
2019-03-26T08:15:43.792Z,102259.86
2019-03-26T08:18:53.520Z,102256.30
2019-03-26T08:22:13.371Z,102251.36
2019-03-26T08:25:22.852Z,102253.71
2019-03-26T08:28:32.159Z,102232.02
2019-03-26T08:31:52.056Z,102224.94
2019-03-26T08:35:01.470Z,102231.00
2019-03-26T08:38:13.049Z,102229.55
2019-03-26T08:41:22.145Z,102224.11
2019-03-26T08:44:31.585Z,102225.72
2019-03-26T08:47:51.275Z,102222.32
2019-03-26T08:51:00.833Z,102223.45
2019-03-26T08:54:09.970Z,102221.44
2019-03-26T08:57:29.706Z,102215.98
2019-03-26T09:00:39.138Z,102225.97
2019-03-26T09:03:48.638Z,102230.41
2019-03-26T09:07:10.935Z,102217.03
2019-03-26T09:10:20.387Z,102230.30
2019-03-26T09:13:29.678Z,102247.80
2019-03-26T09:16:39.137Z,102261.55
2019-03-26T09:19:59.222Z,102255.08
2019-03-26T09:23:08.685Z,102257.15
2019-03-26T09:26:18.111Z,102252.28
2019-03-26T09:29:27.612Z,102239.46
2019-03-26T09:32:37.346Z,102242.27
2019-03-26T09:35:46.792Z,102241.39
2019-03-26T09:38:56.294Z,102248.64
2019-03-26T09:42:05.748Z,102258.84
2019-03-26T09:45:15.811Z,102258.23
2019-03-26T09:48:25.166Z,102268.25
2019-03-26T09:51:36.850Z,102265.17
2019-03-26T09:54:47.276Z,102257.13
2019-03-26T09:57:56.962Z,102262.48
2019-03-26T10:01:16.717Z,102257.16
2019-03-26T10:04:26.163Z,102248.05
2019-03-26T10:07:36.753Z,102244.29
2019-03-26T10:10:46.095Z,102250.27
2019-03-26T10:13:54.035Z,102252.54
2019-03-26T10:17:03.640Z,102264.86
2019-03-26T10:20:23.240Z,102264.25
2019-03-26T10:23:34.134Z,102253.58
2019-03-26T10:26:43.703Z,102255.44
2019-03-26T10:30:05.762Z,102258.84
2019-03-26T10:33:14.620Z,102260.70
2019-03-26T10:36:24.069Z,102259.16
2019-03-26T10:39:33.509Z,102252.62
2019-03-26T10:42:43.141Z,102257.75
2019-03-26T10:46:02.721Z,102260.28
2019-03-26T10:49:12.189Z,102259.38
2019-03-26T10:52:23.181Z,102267.67
2019-03-26T10:55:42.915Z,102258.15
2019-03-26T10:58:53.477Z,102253.71
2019-03-26T11:02:02.923Z,102256.08
2019-03-26T11:05:11.436Z,102249.02
2019-03-26T11:08:20.827Z,102246.06
2019-03-26T11:11:28.827Z,102240.87
2019-03-26T11:14:38.241Z,102246.22
2019-03-26T11:17:47.767Z,102250.17
2019-03-26T11:21:02.854Z,102245.84
2019-03-26T11:24:08.371Z,102255.88
2019-03-26T11:27:17.811Z,102242.94
2019-03-26T11:30:27.227Z,102246.78
2019-03-26T11:33:47.083Z,102247.39
2019-03-26T11:36:56.550Z,102241.89
2019-03-26T11:40:06.197Z,102252.49
2019-03-26T11:43:25.701Z,102254.13
2019-03-26T11:46:35.150Z,102251.77
2019-03-26T11:49:44.567Z,102260.78
2019-03-26T11:53:04.329Z,102259.02
2019-03-26T11:56:13.935Z,102268.78
2019-03-26T11:59:23.372Z,102261.20
2019-03-26T12:02:34.300Z,102267.54
2019-03-26T12:05:43.714Z,102260.68
2019-03-26T12:08:53.558Z,102261.97
2019-03-26T12:12:02.945Z,102266.07
2019-03-26T12:15:24.975Z,102266.99
2019-03-26T12:18:44.784Z,102276.42
2019-03-26T12:21:54.227Z,102277.06
2019-03-26T12:25:03.692Z,102281.06
2019-03-26T12:28:23.441Z,102288.10
2019-03-26T12:31:32.827Z,102277.56
2019-03-26T12:34:42.335Z,102275.25
2019-03-26T12:38:15.010Z,102264.59
2019-03-26T12:41:24.590Z,102262.39
2019-03-26T12:44:44.532Z,102269.59
2019-03-26T12:47:53.948Z,102269.66
2019-03-26T12:51:03.412Z,102266.05
2019-03-26T12:54:23.049Z,102275.00
2019-03-26T12:57:32.575Z,102293.48
2019-03-26T13:00:41.904Z,102296.59
2019-03-26T13:04:11.975Z,102293.80
2019-03-26T13:07:12.709Z,102296.41
2019-03-26T13:10:22.012Z,102282.30
2019-03-26T13:13:41.788Z,102283.78
2019-03-26T13:16:51.194Z,102292.34
2019-03-26T13:20:00.714Z,102293.11
2019-03-26T13:23:10.276Z,102302.61
2019-03-26T13:26:21.089Z,102297.17
2019-03-26T13:29:30.630Z,102300.06
2019-03-26T13:32:39.940Z,102307.34
2019-03-26T13:35:49.685Z,102301.84
2019-03-26T13:39:11.074Z,102305.58
2019-03-26T13:42:20.464Z,102310.80
2019-03-26T13:45:32.673Z,102312.69
2019-03-26T13:48:41.109Z,102320.62
2019-03-26T13:51:52.056Z,102318.70
2019-03-26T13:55:12.197Z,102318.84
2019-03-26T13:58:21.500Z,102323.53
2019-03-26T14:01:31.034Z,102320.67
2019-03-26T14:04:41.776Z,102321.64
2019-03-26T14:07:51.212Z,102321.03
2019-03-26T14:11:00.669Z,102324.43
2019-03-26T14:14:10.110Z,102332.18
2019-03-26T14:17:19.662Z,102333.06
2019-03-26T14:20:39.207Z,102327.72
2019-03-26T14:23:48.598Z,102336.06
2019-03-26T14:26:57.916Z,102346.82
2019-03-26T14:30:07.014Z,102336.44
2019-03-26T14:33:26.638Z,102352.05
2019-03-26T14:36:37.232Z,102358.02
2019-03-26T14:39:46.770Z,102354.25
2019-03-26T14:42:56.304Z,102364.66
2019-03-26T14:46:05.736Z,102348.92
2019-03-26T14:49:15.026Z,102342.74
2019-03-26T14:52:34.675Z,102346.51
2019-03-26T14:55:44.147Z,102340.80
2019-03-26T14:58:53.611Z,102344.61
2019-03-26T15:02:14.481Z,102347.38
2019-03-26T15:05:34.290Z,102351.73
2019-03-26T15:08:43.753Z,102358.84
2019-03-26T15:11:53.249Z,102358.00
2019-03-26T15:15:13.442Z,102360.16
2019-03-26T15:18:23.314Z,102358.91
2019-03-26T15:21:32.815Z,102355.95
2019-03-26T15:24:42.131Z,102363.86
2019-03-26T15:28:01.777Z,102358.14
2019-03-26T15:31:11.219Z,102360.02
2019-03-26T15:34:20.671Z,102361.34
2019-03-26T15:37:40.911Z,102360.42
2019-03-26T15:40:50.863Z,102349.26
2019-03-26T15:44:00.518Z,102360.30
2019-03-26T15:47:10.444Z,102355.34
2019-03-26T15:50:39.047Z,102365.71
2019-03-26T15:53:58.900Z,102368.38
2019-03-26T15:57:08.360Z,102371.16
2019-03-26T16:00:22.632Z,102371.44
2019-03-26T16:03:42.337Z,102378.66
2019-03-26T16:06:51.616Z,102373.17
2019-03-26T16:10:01.033Z,102377.11
2019-03-26T16:13:21.058Z,102378.01
2019-03-26T16:16:32.016Z,102386.88
2019-03-26T16:19:41.487Z,102390.31
2019-03-26T16:23:01.076Z,102387.55
2019-03-26T16:26:10.494Z,102389.58
2019-03-26T16:29:19.828Z,102394.98
2019-03-26T16:32:39.640Z,102397.37
2019-03-26T16:35:49.062Z,102400.24
2019-03-26T16:38:58.490Z,102394.70
2019-03-26T16:42:18.175Z,102397.02
2019-03-26T16:45:27.603Z,102399.58
2019-03-26T16:48:36.941Z,102400.59
2019-03-26T16:51:46.404Z,102405.89
2019-03-26T16:54:55.870Z,102409.29
2019-03-26T16:58:05.309Z,102417.31
2019-03-26T17:01:14.769Z,102402.30
2019-03-26T17:04:24.204Z,102406.30
2019-03-26T17:07:44.043Z,102404.92
2019-03-26T17:10:53.519Z,102406.66
2019-03-26T17:14:02.953Z,102404.26
2019-03-26T17:17:22.755Z,102415.39
2019-03-26T17:20:32.218Z,102410.70
2019-03-26T17:23:41.942Z,102416.28
2019-03-26T17:26:51.332Z,102418.02
2019-03-26T17:30:00.783Z,102418.06
2019-03-26T17:33:20.397Z,102414.88
2019-03-26T17:36:29.873Z,102414.95
2019-03-26T17:39:39.374Z,102413.36
2019-03-26T17:42:58.941Z,102417.55
2019-03-26T17:46:08.400Z,102416.77
2019-03-26T17:49:18.620Z,102415.98
2019-03-26T17:52:28.302Z,102414.31
2019-03-26T17:55:49.137Z,102416.08
2019-03-26T17:58:57.889Z,102422.20
2019-03-26T18:02:07.893Z,102422.17
2019-03-26T18:05:28.945Z,102421.33
2019-03-26T18:08:39.596Z,102424.83
2019-03-26T18:11:51.394Z,102431.23
2019-03-26T18:15:00.628Z,102444.66
2019-03-26T18:18:10.120Z,102450.24
2019-03-26T18:21:29.743Z,102447.66
2019-03-26T18:24:39.153Z,102443.80
2019-03-26T18:27:48.591Z,102444.66
2019-03-26T18:31:08.363Z,102453.21
2019-03-26T18:34:17.813Z,102459.22
2019-03-26T18:37:27.094Z,102469.12
2019-03-26T18:40:46.850Z,102473.42
2019-03-26T18:43:56.258Z,102470.48
2019-03-26T18:47:06.867Z,102482.48
2019-03-26T18:50:16.571Z,102482.46
2019-03-26T18:53:28.089Z,102491.11
2019-03-26T18:56:37.973Z,102493.31
2019-03-26T18:59:47.610Z,102494.58
2019-03-26T19:02:57.114Z,102498.88
2019-03-26T19:06:06.525Z,102497.61
2019-03-26T19:09:26.588Z,102493.67
2019-03-26T19:12:36.216Z,102504.41
2019-03-26T19:15:56.259Z,102499.64
2019-03-26T19:19:05.847Z,102499.29
2019-03-26T19:22:15.255Z,102507.47
2019-03-26T19:25:24.675Z,102500.97
2019-03-26T19:28:34.162Z,102507.35
2019-03-26T19:31:53.888Z,102506.50
2019-03-26T19:35:03.381Z,102516.00
2019-03-26T19:38:12.777Z,102515.16
2019-03-26T19:41:32.439Z,102513.80
2019-03-26T19:44:42.166Z,102506.12
2019-03-26T19:47:51.807Z,102516.06
2019-03-26T19:51:01.249Z,102524.25
2019-03-26T19:54:10.792Z,102523.89
2019-03-26T19:57:20.188Z,102515.30
2019-03-26T20:00:30.145Z,102523.92
2019-03-26T20:03:39.547Z,102522.16
2019-03-26T20:06:48.846Z,102522.57
2019-03-26T20:10:10.498Z,102525.58
2019-03-26T20:13:24.683Z,102520.01
2019-03-26T20:16:41.377Z,102533.45
2019-03-26T20:19:40.875Z,102529.98
2019-03-26T20:22:50.322Z,102525.68
2019-03-26T20:25:59.853Z,102524.86
2019-03-26T20:29:09.256Z,102536.92
2019-03-26T20:32:18.762Z,102538.16
2019-03-26T20:35:28.176Z,102536.94
2019-03-26T20:38:48.079Z,102535.18
2019-03-26T20:41:57.484Z,102541.69
2019-03-26T20:45:08.873Z,102539.51
2019-03-26T20:48:18.178Z,102547.69
2019-03-26T20:51:27.590Z,102564.54
2019-03-26T20:54:47.481Z,102567.11
2019-03-26T20:57:56.885Z,102569.33
2019-03-26T21:01:06.260Z,102580.08
2019-03-26T21:04:25.934Z,102583.94
2019-03-26T21:07:35.331Z,102586.11
2019-03-26T21:10:44.812Z,102583.47
2019-03-26T21:14:04.464Z,102589.07
2019-03-26T21:17:14.071Z,102582.16
2019-03-26T21:20:23.433Z,102581.72
2019-03-26T21:23:43.492Z,102584.31
2019-03-26T21:26:52.767Z,102589.49
2019-03-26T21:30:10.833Z,102584.72
2019-03-26T21:33:13.266Z,102588.11
2019-03-26T21:36:22.785Z,102594.23
2019-03-26T21:39:42.394Z,102584.26
2019-03-26T21:42:51.697Z,102596.30
2019-03-26T21:46:01.007Z,102592.94
2019-03-26T21:49:10.508Z,102595.47
2019-03-26T21:52:19.858Z,102596.30
2019-03-26T21:55:29.151Z,102596.86
2019-03-26T21:58:38.477Z,102599.45
2019-03-26T22:01:47.944Z,102595.56
2019-03-26T22:04:57.243Z,102603.36
2019-03-26T22:08:16.952Z,102598.62
2019-03-26T22:11:26.435Z,102606.42
2019-03-26T22:14:35.738Z,102611.59
2019-03-26T22:17:45.011Z,102613.30
2019-03-26T22:20:54.485Z,102608.13
2019-03-26T22:24:03.942Z,102617.60
2019-03-26T22:27:23.515Z,102616.72
2019-03-26T22:30:33.105Z,102621.50
2019-03-26T22:33:42.544Z,102626.24
2019-03-26T22:37:02.125Z,102623.56
2019-03-26T22:40:12.032Z,102630.50
2019-03-26T22:43:21.317Z,102632.66
2019-03-26T22:46:30.725Z,102641.28
2019-03-26T22:49:40.793Z,102634.39
2019-03-26T22:52:50.071Z,102644.73
2019-03-26T22:55:59.418Z,102647.81
2019-03-26T22:59:19.058Z,102656.83
2019-03-26T23:02:28.520Z,102662.44
2019-03-26T23:05:37.943Z,102654.64
2019-03-26T23:08:57.716Z,102653.86
2019-03-26T23:12:07.008Z,102663.83
2019-03-26T23:15:23.172Z,102664.67
2019-03-26T23:18:32.471Z,102675.02
2019-03-26T23:21:41.868Z,102671.53
2019-03-26T23:24:51.351Z,102675.86
2019-03-26T23:28:00.712Z,102666.41
2019-03-26T23:31:10.066Z,102668.95
2019-03-26T23:34:29.841Z,102665.88
2019-03-26T23:37:39.320Z,102667.22
2019-03-26T23:40:48.715Z,102667.17
2019-03-26T23:44:08.400Z,102671.89
2019-03-26T23:47:17.815Z,102675.42
2019-03-26T23:50:27.441Z,102677.09
2019-03-26T23:53:36.848Z,102671.89
2019-03-26T23:56:46.357Z,102671.50
2019-03-26T23:59:55.773Z,102677.14
